createdAt,value
2023-12-26T00:02:54.220Z,9.50
2023-12-26T00:07:56.133Z,9.37
2023-12-26T00:12:58.482Z,9.36
2023-12-26T00:18:00.612Z,9.24
2023-12-26T00:23:02.512Z,9.20
2023-12-26T00:28:05.215Z,9.22
2023-12-26T00:33:07.561Z,9.26
2023-12-26T00:38:09.322Z,9.20
2023-12-26T00:43:11.732Z,9.26
2023-12-26T00:48:13.937Z,9.35
2023-12-26T00:53:15.829Z,9.35
2023-12-26T00:58:17.813Z,9.31
2023-12-26T01:03:23.376Z,9.28
2023-12-26T01:08:25.480Z,9.26
2023-12-26T01:13:31.166Z,9.21
2023-12-26T01:18:33.116Z,9.19
2023-12-26T01:23:35.698Z,9.10
2023-12-26T01:28:37.839Z,8.96
2023-12-26T01:33:41.003Z,8.96
2023-12-26T01:38:43.057Z,8.89
2023-12-26T01:43:45.023Z,8.79
2023-12-26T01:48:51.296Z,8.62
2023-12-26T01:53:53.377Z,8.51
2023-12-26T01:58:55.238Z,8.48
2023-12-26T02:03:59.354Z,8.42
2023-12-26T02:09:01.346Z,8.40
2023-12-26T02:14:03.723Z,8.33
2023-12-26T02:19:06.993Z,8.26
2023-12-26T02:24:09.173Z,8.23
2023-12-26T02:29:11.791Z,8.16
2023-12-26T02:34:13.776Z,7.99
2023-12-26T02:39:16.405Z,7.94
2023-12-26T02:44:18.312Z,7.91
2023-12-26T02:49:20.778Z,7.92
2023-12-26T02:54:22.567Z,7.91
2023-12-26T02:59:24.356Z,7.91
2023-12-26T03:04:27.249Z,7.73
2023-12-26T03:09:29.201Z,7.61
2023-12-26T03:14:31.031Z,7.62
2023-12-26T03:19:33.379Z,7.59
2023-12-26T03:24:35.296Z,7.56
2023-12-26T03:29:37.270Z,7.55
2023-12-26T03:34:39.327Z,7.54
2023-12-26T03:39:42.356Z,7.50
2023-12-26T03:44:47.928Z,7.45
2023-12-26T03:49:50.126Z,7.46
2023-12-26T03:54:53.181Z,7.38
2023-12-26T03:59:56.327Z,7.19
2023-12-26T04:04:58.436Z,7.20
2023-12-26T04:10:00.491Z,7.20
2023-12-26T04:15:03.721Z,7.23
2023-12-26T04:20:06.118Z,7.29
2023-12-26T04:25:08.451Z,7.25
2023-12-26T04:30:11.589Z,7.27
2023-12-26T04:35:14.328Z,7.27
2023-12-26T04:40:16.654Z,7.26
2023-12-26T04:45:18.744Z,7.23
2023-12-26T04:50:20.816Z,7.19
2023-12-26T04:55:22.561Z,7.22
2023-12-26T05:00:24.832Z,7.21
2023-12-26T05:05:27.332Z,7.27
2023-12-26T05:10:29.471Z,7.19
2023-12-26T05:15:31.616Z,7.19
2023-12-26T05:20:33.597Z,7.15
2023-12-26T05:25:35.469Z,7.09
2023-12-26T05:30:38.356Z,7.08
2023-12-26T05:35:40.399Z,7.18
2023-12-26T05:40:42.404Z,7.25
2023-12-26T05:45:44.292Z,7.38
2023-12-26T05:50:47.192Z,7.51
2023-12-26T05:55:50.748Z,7.61
2023-12-26T06:00:53.207Z,7.70
2023-12-26T06:05:55.142Z,7.72
2023-12-26T06:10:57.710Z,7.76
2023-12-26T06:16:00.197Z,7.74
2023-12-26T06:21:02.914Z,7.74
2023-12-26T06:26:08.620Z,7.74
2023-12-26T06:31:15.652Z,7.73
2023-12-26T06:36:18.087Z,7.73
2023-12-26T06:41:20.267Z,7.71
2023-12-26T06:46:22.846Z,7.72
2023-12-26T06:51:24.883Z,7.70
2023-12-26T06:56:26.759Z,7.68
2023-12-26T07:01:29.541Z,7.69
2023-12-26T07:06:31.797Z,7.68
2023-12-26T07:11:34.592Z,7.69
2023-12-26T07:16:36.879Z,7.66
2023-12-26T07:21:38.587Z,7.63
2023-12-26T07:26:40.426Z,7.61
2023-12-26T07:31:42.223Z,7.59
2023-12-26T07:36:43.996Z,7.58
2023-12-26T07:41:46.407Z,7.59
2023-12-26T07:46:50.093Z,7.61
2023-12-26T07:51:52.310Z,7.64
2023-12-26T07:56:54.113Z,7.67
2023-12-26T08:01:56.087Z,7.74
2023-12-26T08:06:57.910Z,7.83
2023-12-26T08:12:00.584Z,7.86
2023-12-26T08:17:02.481Z,7.91
2023-12-26T08:22:04.223Z,7.97
2023-12-26T08:27:06.129Z,8.03
2023-12-26T08:32:07.951Z,8.06
2023-12-26T08:37:09.985Z,8.10
2023-12-26T08:42:11.932Z,8.14
2023-12-26T08:47:14.285Z,8.12
2023-12-26T08:52:16.234Z,8.15
2023-12-26T08:57:18.132Z,8.19
2023-12-26T09:02:20.054Z,8.24
2023-12-26T09:07:21.800Z,8.32
2023-12-26T09:12:23.953Z,8.37
2023-12-26T09:17:26.074Z,8.45
2023-12-26T09:22:27.918Z,8.46
2023-12-26T09:27:29.970Z,8.53
2023-12-26T09:32:31.887Z,8.60
2023-12-26T09:37:36.509Z,8.62
2023-12-26T09:42:38.563Z,8.66
2023-12-26T09:47:44.449Z,8.69
2023-12-26T09:52:53.577Z,8.71
2023-12-26T09:57:58.829Z,8.71
2023-12-26T10:03:01.469Z,8.74
2023-12-26T10:08:03.412Z,8.76
2023-12-26T10:13:05.303Z,8.81
2023-12-26T10:18:09.299Z,8.89
2023-12-26T10:23:12.691Z,8.98
2023-12-26T10:28:17.435Z,9.08
2023-12-26T10:33:27.336Z,9.14
2023-12-26T10:38:29.472Z,9.18
2023-12-26T10:43:34.869Z,9.21
2023-12-26T10:48:38.096Z,9.30
2023-12-26T10:53:48.514Z,9.35
2023-12-26T10:58:53.204Z,9.39
2023-12-26T11:03:55.360Z,9.43
2023-12-26T11:08:58.131Z,9.48
2023-12-26T11:14:00.025Z,9.51
2023-12-26T11:19:03.151Z,9.47
2023-12-26T11:24:07.117Z,9.49
2023-12-26T11:29:09.613Z,9.53
2023-12-26T11:34:16.033Z,9.54
2023-12-26T11:39:19.245Z,9.62
2023-12-26T11:44:22.153Z,9.74
2023-12-26T11:49:24.127Z,9.90
2023-12-26T11:54:26.142Z,10.00
2023-12-26T11:59:28.553Z,10.01
2023-12-26T12:04:30.523Z,10.01
2023-12-26T12:09:32.244Z,10.00
2023-12-26T12:14:34.510Z,10.03
2023-12-26T12:19:38.138Z,10.04
2023-12-26T12:24:40.203Z,10.10
2023-12-26T12:30:01.082Z,10.12
2023-12-26T12:35:19.638Z,10.13
2023-12-26T12:40:23.749Z,10.12
2023-12-26T12:45:25.801Z,10.26
2023-12-26T12:50:27.634Z,10.35
2023-12-26T12:55:29.507Z,10.39
2023-12-26T13:00:31.735Z,10.48
2023-12-26T13:05:33.572Z,10.55
2023-12-26T13:10:35.910Z,10.58
2023-12-26T13:15:39.336Z,10.53
2023-12-26T13:20:41.580Z,10.54
2023-12-26T13:25:43.929Z,10.57
2023-12-26T13:30:48.270Z,10.63
2023-12-26T13:35:50.225Z,10.73
2023-12-26T13:40:52.092Z,10.72
2023-12-26T13:45:53.980Z,10.69
2023-12-26T13:50:55.763Z,10.66
2023-12-26T13:55:57.716Z,10.67
2023-12-26T14:00:59.626Z,10.62
2023-12-26T14:06:01.448Z,10.58
2023-12-26T14:11:04.285Z,10.60
2023-12-26T14:16:06.111Z,10.63
2023-12-26T14:21:08.432Z,10.59
2023-12-26T14:26:10.348Z,10.57
2023-12-26T14:31:12.473Z,10.52
2023-12-26T14:36:14.347Z,10.53
2023-12-26T14:41:16.406Z,10.52
2023-12-26T14:46:18.294Z,10.53
2023-12-26T14:51:21.992Z,10.51
2023-12-26T14:56:23.889Z,10.49
2023-12-26T15:01:27.478Z,10.53
2023-12-26T15:06:30.098Z,10.57
2023-12-26T15:11:32.076Z,10.62
2023-12-26T15:16:34.035Z,10.59
2023-12-26T15:21:44.559Z,10.63
2023-12-26T15:26:46.497Z,10.58
2023-12-26T15:31:48.618Z,10.55
2023-12-26T15:36:50.785Z,10.59
2023-12-26T15:41:52.625Z,10.63
2023-12-26T15:46:54.834Z,10.61
2023-12-26T15:51:57.113Z,10.55
2023-12-26T15:56:58.991Z,10.43
2023-12-26T16:02:01.242Z,10.45
2023-12-26T16:07:03.458Z,10.51
2023-12-26T16:12:05.457Z,10.53
2023-12-26T16:17:07.261Z,10.49
2023-12-26T16:22:09.119Z,10.51
2023-12-26T16:27:11.637Z,10.42
2023-12-26T16:32:15.534Z,10.44
2023-12-26T16:37:17.211Z,10.44
2023-12-26T16:42:21.835Z,10.43
2023-12-26T16:47:23.782Z,10.38
2023-12-26T16:52:25.840Z,10.37
2023-12-26T16:57:30.966Z,10.37
2023-12-26T17:02:33.409Z,10.29
2023-12-26T17:07:35.204Z,10.25
2023-12-26T17:12:37.270Z,10.24
2023-12-26T17:17:39.289Z,10.28
2023-12-26T17:22:42.674Z,10.24
2023-12-26T17:27:44.616Z,10.27
2023-12-26T17:32:47.337Z,10.29
2023-12-26T17:37:49.680Z,10.25
2023-12-26T17:42:51.475Z,10.26
2023-12-26T17:47:53.669Z,10.27
2023-12-26T17:52:55.575Z,10.24
2023-12-26T17:57:58.136Z,10.21
2023-12-26T18:03:00.481Z,10.18
2023-12-26T18:08:02.582Z,10.15
2023-12-26T18:13:04.973Z,10.12
2023-12-26T18:18:07.106Z,10.08
2023-12-26T18:23:10.574Z,10.04
2023-12-26T18:28:12.394Z,10.05
2023-12-26T18:33:16.607Z,10.06
2023-12-26T18:38:18.578Z,10.03
2023-12-26T18:43:20.733Z,10.02
2023-12-26T18:48:25.551Z,9.98
2023-12-26T18:53:27.522Z,9.94
2023-12-26T18:58:29.690Z,9.99
2023-12-26T19:03:31.490Z,9.99
2023-12-26T19:08:33.762Z,10.00
2023-12-26T19:13:38.577Z,9.96
2023-12-26T19:18:43.758Z,9.93
2023-12-26T19:23:52.417Z,9.88
2023-12-26T19:28:55.197Z,9.87
2023-12-26T19:33:57.290Z,9.78
2023-12-26T19:39:00.066Z,9.68
2023-12-26T19:44:01.809Z,9.59
2023-12-26T19:49:04.118Z,9.63
2023-12-26T19:54:06.036Z,9.67
2023-12-26T19:59:09.904Z,9.75
2023-12-26T20:04:12.053Z,9.78
2023-12-26T20:09:20.274Z,9.79
2023-12-26T20:14:25.936Z,9.78
2023-12-26T20:19:28.740Z,9.80
2023-12-26T20:24:32.793Z,9.82
2023-12-26T20:29:35.525Z,9.84
2023-12-26T20:34:38.223Z,9.86
2023-12-26T20:39:40.431Z,9.85
2023-12-26T20:44:44.309Z,9.79
2023-12-26T20:49:48.094Z,9.81
2023-12-26T20:54:50.719Z,9.84
2023-12-26T20:59:52.872Z,9.87
2023-12-26T21:04:55.392Z,9.85
2023-12-26T21:09:57.401Z,9.85
2023-12-26T21:15:01.060Z,9.83
2023-12-26T21:20:05.928Z,9.84
2023-12-26T21:25:14.967Z,9.81
2023-12-26T21:30:17.555Z,9.80
2023-12-26T21:35:19.653Z,9.79
2023-12-26T21:40:21.478Z,9.80
2023-12-26T21:45:23.315Z,9.81
2023-12-26T21:50:25.306Z,9.80
2023-12-26T21:55:27.097Z,9.78
2023-12-26T22:00:30.801Z,9.77
2023-12-26T22:05:32.723Z,9.72
2023-12-26T22:10:34.513Z,9.57
2023-12-26T22:15:36.902Z,9.60
2023-12-26T22:20:39.146Z,9.66
2023-12-26T22:25:49.396Z,9.70
2023-12-26T22:30:51.226Z,9.73
2023-12-26T22:35:53.039Z,9.73
2023-12-26T22:40:54.881Z,9.72
2023-12-26T22:45:56.762Z,9.71
2023-12-26T22:50:58.659Z,9.66
2023-12-26T22:56:01.738Z,9.54
2023-12-26T23:01:05.351Z,9.44
2023-12-26T23:06:07.459Z,9.37
2023-12-26T23:11:09.525Z,9.30
2023-12-26T23:16:11.506Z,9.25
2023-12-26T23:21:18.306Z,9.24
2023-12-26T23:26:21.525Z,9.22
2023-12-26T23:31:23.505Z,9.19
2023-12-26T23:36:25.784Z,9.13
2023-12-26T23:41:27.613Z,9.12
2023-12-26T23:46:29.421Z,9.17
2023-12-26T23:51:33.385Z,9.21
2023-12-26T23:56:35.171Z,9.07
